createdAt,value
2023-02-18T00:02:23.038Z,4.55
2023-02-18T00:04:50.260Z,8.00
2023-02-18T00:07:17.461Z,7.30
2023-02-18T00:09:44.616Z,10.05
2023-02-18T00:12:11.895Z,7.25
2023-02-18T00:14:39.244Z,5.65
2023-02-18T00:17:06.531Z,8.18
2023-02-18T00:19:35.190Z,5.90
2023-02-18T00:22:02.535Z,4.68
2023-02-18T00:24:29.845Z,3.88
2023-02-18T00:26:57.057Z,4.07
2023-02-18T00:29:24.421Z,3.38
2023-02-18T00:31:51.762Z,5.93
2023-02-18T00:34:19.128Z,5.65
2023-02-18T00:36:59.073Z,4.97
2023-02-18T00:39:26.590Z,5.07
2023-02-18T00:41:53.861Z,5.32
2023-02-18T00:44:21.009Z,2.95
2023-02-18T00:46:49.876Z,4.00
2023-02-18T00:49:17.487Z,5.40
2023-02-18T00:51:44.977Z,5.90
2023-02-18T00:54:13.714Z,2.47
2023-02-18T00:56:41.062Z,3.63
2023-02-18T00:59:08.361Z,4.65
2023-02-18T01:01:35.807Z,3.53
2023-02-18T01:04:03.507Z,4.75
2023-02-18T01:06:32.303Z,5.72
2023-02-18T01:08:59.757Z,3.08
2023-02-18T01:11:31.718Z,3.80
2023-02-18T01:13:59.342Z,4.93
2023-02-18T01:16:27.066Z,2.38
2023-02-18T01:18:54.412Z,5.15
2023-02-18T01:21:22.178Z,7.75
2023-02-18T01:23:49.504Z,4.40
2023-02-18T01:26:16.837Z,2.63
2023-02-18T01:28:45.763Z,3.92
2023-02-18T01:31:14.091Z,4.70
2023-02-18T01:33:41.822Z,2.08
2023-02-18T01:36:10.876Z,4.05
2023-02-18T01:38:38.299Z,4.78
2023-02-18T01:41:06.647Z,5.82
2023-02-18T01:43:34.867Z,6.15
2023-02-18T01:46:17.464Z,5.00
2023-02-18T01:48:50.944Z,7.50
2023-02-18T01:51:22.093Z,5.88
2023-02-18T01:53:54.843Z,4.93
2023-02-18T01:56:27.643Z,6.13
2023-02-18T01:58:57.613Z,5.35
2023-02-18T02:01:27.251Z,5.18
2023-02-18T02:03:54.991Z,4.45
2023-02-18T02:06:24.105Z,6.88
2023-02-18T02:08:55.277Z,1.77
2023-02-18T02:11:41.734Z,3.38
2023-02-18T02:14:23.223Z,5.90
2023-02-18T02:17:03.227Z,6.18
2023-02-18T02:20:09.745Z,3.22
2023-02-18T02:23:13.492Z,4.35
2023-02-18T02:26:22.192Z,7.75
2023-02-18T02:29:27.882Z,3.67
2023-02-18T02:32:32.885Z,5.60
2023-02-18T02:35:06.855Z,5.05
2023-02-18T02:37:42.216Z,5.25
2023-02-18T02:40:20.788Z,8.98
2023-02-18T02:43:00.197Z,7.55
2023-02-18T02:45:44.077Z,7.30
2023-02-18T02:48:21.802Z,6.68
2023-02-18T02:50:58.799Z,2.70
2023-02-18T02:53:30.437Z,3.95
2023-02-18T02:55:57.738Z,5.65
2023-02-18T02:58:26.029Z,7.63
2023-02-18T03:01:13.640Z,4.47
2023-02-18T03:04:01.422Z,5.20
2023-02-18T03:06:49.224Z,2.92
2023-02-18T03:11:58.900Z,7.90
2023-02-18T03:14:30.484Z,6.75
2023-02-18T03:17:02.822Z,6.63
2023-02-18T03:19:35.291Z,10.68
2023-02-18T03:22:08.860Z,8.82
2023-02-18T03:24:39.820Z,9.80
2023-02-18T03:27:11.848Z,4.38
2023-02-18T03:29:41.306Z,6.53
2023-02-18T03:32:13.653Z,13.07
2023-02-18T03:34:44.374Z,11.95
2023-02-18T03:37:14.881Z,14.63
2023-02-18T03:39:46.261Z,11.45
2023-02-18T03:42:16.017Z,11.93
2023-02-18T03:44:43.346Z,8.70
2023-02-18T03:47:13.080Z,13.95
2023-02-18T03:49:40.484Z,9.77
2023-02-18T03:52:07.732Z,12.32
2023-02-18T03:54:36.761Z,9.20
2023-02-18T03:57:04.181Z,10.48
2023-02-18T03:59:31.531Z,14.20
2023-02-18T04:01:58.828Z,5.65
2023-02-18T04:04:26.177Z,13.55
2023-02-18T04:06:53.537Z,12.23
2023-02-18T04:09:20.774Z,15.60
2023-02-18T04:11:49.415Z,13.73
2023-02-18T04:14:16.884Z,5.57
2023-02-18T04:16:44.391Z,8.38
2023-02-18T04:19:12.139Z,8.52
2023-02-18T04:21:39.528Z,11.05
2023-02-18T04:24:06.847Z,9.77
2023-02-18T04:26:34.282Z,12.05
2023-02-18T04:29:03.119Z,10.43
2023-02-18T04:31:30.454Z,9.90
2023-02-18T04:33:57.935Z,10.68
2023-02-18T04:36:25.147Z,9.05
2023-02-18T04:38:52.525Z,9.25
2023-02-18T04:41:19.894Z,9.93
2023-02-18T04:43:47.128Z,13.70
2023-02-18T04:46:15.838Z,4.85
2023-02-18T04:48:43.262Z,9.57
2023-02-18T04:51:10.881Z,10.98
2023-02-18T04:53:38.180Z,10.00
2023-02-18T04:56:06.032Z,15.77
2023-02-18T04:58:33.510Z,8.00
2023-02-18T05:01:01.223Z,6.63
2023-02-18T05:03:30.979Z,9.27
2023-02-18T05:05:58.859Z,7.43
2023-02-18T05:08:26.488Z,11.05
2023-02-18T05:10:53.980Z,9.90
2023-02-18T05:13:22.943Z,5.35
2023-02-18T05:15:50.613Z,6.00
2023-02-18T05:18:18.186Z,2.63
2023-02-18T05:20:46.919Z,3.58
2023-02-18T05:23:14.919Z,6.13
2023-02-18T05:25:42.369Z,4.20
2023-02-18T05:28:09.643Z,10.75
2023-02-18T05:30:37.433Z,3.53
2023-02-18T05:33:04.959Z,3.95
2023-02-18T05:35:32.135Z,4.82
2023-02-18T05:38:01.081Z,8.50
2023-02-18T05:40:28.409Z,11.82
2023-02-18T05:42:55.740Z,7.60
2023-02-18T05:45:22.967Z,9.07
2023-02-18T05:47:50.444Z,8.00
2023-02-18T05:50:17.817Z,9.27
2023-02-18T05:52:45.009Z,9.02
2023-02-18T05:55:13.688Z,7.65
2023-02-18T05:57:40.966Z,11.55
2023-02-18T06:00:10.356Z,6.28
2023-02-18T06:02:37.933Z,9.98
2023-02-18T06:05:06.511Z,8.30
2023-02-18T06:07:33.765Z,11.00
2023-02-18T06:10:01.280Z,9.35
2023-02-18T06:12:29.884Z,5.43
2023-02-18T06:14:57.196Z,7.75
2023-02-18T06:17:24.428Z,9.35
2023-02-18T06:19:51.784Z,7.90
2023-02-18T06:22:19.238Z,5.78
2023-02-18T06:24:46.567Z,11.10
2023-02-18T06:27:13.802Z,5.40
2023-02-18T06:29:42.643Z,6.05
2023-02-18T06:32:10.318Z,10.02
2023-02-18T06:34:37.805Z,7.03
2023-02-18T06:37:05.243Z,8.60
2023-02-18T06:39:32.418Z,10.93
2023-02-18T06:42:00.530Z,6.07
2023-02-18T06:44:29.567Z,8.05
2023-02-18T06:46:58.399Z,4.28
2023-02-18T06:49:25.651Z,5.72
2023-02-18T06:51:52.782Z,8.65
2023-02-18T06:54:20.432Z,7.90
2023-02-18T06:56:48.442Z,6.57
2023-02-18T06:59:15.703Z,9.82
2023-02-18T07:01:43.127Z,7.30
2023-02-18T07:04:11.825Z,7.60
2023-02-18T07:06:39.037Z,7.22
2023-02-18T07:09:06.524Z,7.50
2023-02-18T07:11:33.794Z,6.50
2023-02-18T07:14:01.401Z,4.38
2023-02-18T07:16:28.837Z,5.32
2023-02-18T07:18:56.173Z,5.57
2023-02-18T07:21:24.745Z,4.50
2023-02-18T07:23:52.024Z,4.70
2023-02-18T07:26:22.214Z,6.10
2023-02-18T07:28:49.577Z,7.82
2023-02-18T07:31:17.841Z,5.78
2023-02-18T07:33:45.356Z,6.25
2023-02-18T07:36:12.802Z,5.90
2023-02-18T07:38:42.909Z,1.08
2023-02-18T07:41:18.911Z,3.47
2023-02-18T07:43:46.373Z,4.35
2023-02-18T07:46:13.858Z,5.35
2023-02-18T07:48:41.135Z,4.47
2023-02-18T07:51:10.078Z,5.97
2023-02-18T07:53:38.025Z,5.95
2023-02-18T07:56:07.797Z,5.03
2023-02-18T07:58:36.857Z,5.70
2023-02-18T08:01:06.068Z,6.28
2023-02-18T08:03:34.824Z,3.28
2023-02-18T08:06:05.148Z,3.03
2023-02-18T08:08:35.717Z,5.03
2023-02-18T08:11:17.123Z,3.50
2023-02-18T08:13:48.377Z,2.63
2023-02-18T08:16:16.290Z,4.50
2023-02-18T08:18:43.980Z,14.25
2023-02-18T08:21:11.340Z,4.75
2023-02-18T08:23:39.069Z,4.88
2023-02-18T08:26:06.847Z,2.60
2023-02-18T08:28:43.205Z,4.40
2023-02-18T08:31:17.849Z,2.63
2023-02-18T08:33:45.266Z,4.43
2023-02-18T08:36:12.541Z,3.08
2023-02-18T08:38:40.094Z,1.13
2023-02-18T08:41:09.476Z,3.95
2023-02-18T08:43:37.795Z,4.15
2023-02-18T08:46:05.491Z,2.53
2023-02-18T08:48:34.261Z,3.55
2023-02-18T08:51:12.297Z,2.10
2023-02-18T08:53:40.199Z,1.85
2023-02-18T08:56:08.986Z,1.95
2023-02-18T08:58:37.520Z,1.70
2023-02-18T09:01:07.687Z,4.65
2023-02-18T09:03:36.941Z,3.90
2023-02-18T09:06:04.822Z,2.47
2023-02-18T09:08:32.406Z,5.20
2023-02-18T09:11:01.910Z,3.25
2023-02-18T09:13:29.200Z,3.92
2023-02-18T09:15:58.219Z,4.03
2023-02-18T09:18:25.654Z,4.05
2023-02-18T09:20:57.493Z,2.13
2023-02-18T09:23:25.232Z,5.20
2023-02-18T09:25:52.520Z,3.15
2023-02-18T09:28:19.876Z,1.95
2023-02-18T09:30:47.332Z,3.33
2023-02-18T09:33:14.628Z,3.22
2023-02-18T09:35:42.587Z,2.50
2023-02-18T09:38:12.927Z,3.47
2023-02-18T09:40:44.935Z,5.25
2023-02-18T09:43:23.099Z,5.90
2023-02-18T09:45:53.688Z,4.60
2023-02-18T09:48:26.775Z,2.22
2023-02-18T09:50:55.034Z,4.32
2023-02-18T09:53:24.833Z,2.35
2023-02-18T09:55:54.300Z,5.80
2023-02-18T09:58:25.334Z,3.13
2023-02-18T10:01:07.678Z,2.80
2023-02-18T10:03:35.202Z,2.85
2023-02-18T10:06:06.496Z,2.15
2023-02-18T10:08:37.230Z,4.22
2023-02-18T10:11:05.198Z,5.45
2023-02-18T10:13:34.198Z,6.00
2023-02-18T10:16:03.489Z,4.90
2023-02-18T10:18:33.910Z,4.47
2023-02-18T10:21:06.924Z,4.63
2023-02-18T10:26:08.390Z,4.57
2023-02-18T10:28:38.022Z,2.10
2023-02-18T10:31:11.321Z,7.15
2023-02-18T10:33:46.736Z,4.53
2023-02-18T10:36:26.514Z,6.60
2023-02-18T10:39:09.339Z,4.65
2023-02-18T10:41:45.411Z,2.70
2023-02-18T10:44:23.699Z,5.57
2023-02-18T10:47:00.174Z,5.50
2023-02-18T10:49:41.349Z,5.82
2023-02-18T10:52:16.946Z,4.28
2023-02-18T10:55:01.144Z,3.17
2023-02-18T10:57:31.197Z,4.70
2023-02-18T11:00:02.173Z,4.22
2023-02-18T11:02:32.804Z,3.90
2023-02-18T11:05:06.674Z,1.58
2023-02-18T11:07:35.778Z,5.25
2023-02-18T11:10:15.366Z,3.15
2023-02-18T11:12:46.530Z,4.40
2023-02-18T11:15:20.866Z,3.83
2023-02-18T11:17:49.988Z,1.50
2023-02-18T11:20:27.476Z,4.53
2023-02-18T11:22:58.851Z,4.10
2023-02-18T11:25:33.527Z,4.38
2023-02-18T11:28:03.180Z,4.15
2023-02-18T11:30:38.120Z,5.55
2023-02-18T11:33:09.207Z,4.80
2023-02-18T11:35:38.033Z,5.00
2023-02-18T11:38:18.550Z,3.25
2023-02-18T11:40:55.455Z,3.80
2023-02-18T11:43:22.981Z,2.60
2023-02-18T11:46:09.170Z,3.22
2023-02-18T11:48:37.801Z,4.63
2023-02-18T11:51:07.314Z,2.47
2023-02-18T11:53:36.668Z,3.83
2023-02-18T11:56:17.342Z,2.17
2023-02-18T11:58:47.473Z,3.90
2023-02-18T12:01:20.829Z,6.00
2023-02-18T12:03:55.485Z,3.45
2023-02-18T12:06:28.480Z,3.85
2023-02-18T12:09:01.432Z,4.93
2023-02-18T12:14:00.275Z,3.45
2023-02-18T12:16:38.120Z,4.05
2023-02-18T12:19:25.576Z,2.97
2023-02-18T12:22:01.662Z,2.80
2023-02-18T12:24:49.054Z,2.92
2023-02-18T12:27:25.204Z,2.65
2023-02-18T12:30:26.214Z,3.70
2023-02-18T12:33:03.008Z,3.85
2023-02-18T12:35:44.434Z,2.53
2023-02-18T12:38:32.327Z,1.48
2023-02-18T12:41:23.608Z,3.03
2023-02-18T12:44:05.212Z,3.35
2023-02-18T12:46:43.462Z,3.83
2023-02-18T12:49:42.340Z,4.55
2023-02-18T12:52:24.601Z,2.55
2023-02-18T12:55:26.124Z,2.42
2023-02-18T12:58:05.702Z,4.07
2023-02-18T13:01:01.074Z,1.73
2023-02-18T13:03:50.465Z,1.75
2023-02-18T13:06:32.366Z,1.38
2023-02-18T13:09:07.767Z,3.38
2023-02-18T13:11:44.763Z,3.95
2023-02-18T13:14:16.377Z,3.90
2023-02-18T13:16:48.944Z,2.95
2023-02-18T13:19:22.509Z,1.60
2023-02-18T13:21:52.394Z,2.70
2023-02-18T13:24:27.270Z,3.70
2023-02-18T13:26:58.866Z,3.60
2023-02-18T13:29:31.664Z,3.45
2023-02-18T13:32:12.993Z,3.38
2023-02-18T13:34:48.655Z,3.38
2023-02-18T13:37:26.012Z,1.38
2023-02-18T13:39:56.514Z,1.73
2023-02-18T13:42:41.811Z,3.92
2023-02-18T13:45:31.704Z,2.35
2023-02-18T13:48:01.693Z,3.10
2023-02-18T13:50:32.458Z,3.50
2023-02-18T13:53:15.599Z,4.43
2023-02-18T13:55:51.802Z,3.72
2023-02-18T13:58:24.887Z,2.92
2023-02-18T14:03:55.760Z,3.95
2023-02-18T14:06:24.818Z,2.65
2023-02-18T14:09:02.318Z,4.05
2023-02-18T14:11:42.496Z,2.60
2023-02-18T14:14:49.347Z,3.53
2023-02-18T14:17:32.141Z,2.67
2023-02-18T14:20:41.900Z,5.95
2023-02-18T14:23:44.682Z,3.63
2023-02-18T14:26:24.106Z,2.67
2023-02-18T14:28:56.222Z,3.45
2023-02-18T14:31:51.292Z,3.55
2023-02-18T14:34:54.478Z,2.50
2023-02-18T14:38:06.402Z,3.55
2023-02-18T14:40:57.145Z,3.13
2023-02-18T14:43:37.900Z,3.30
2023-02-18T14:46:22.863Z,2.47
2023-02-18T14:49:10.095Z,1.70
2023-02-18T14:51:40.714Z,2.55
2023-02-18T14:54:15.456Z,2.55
2023-02-18T14:56:56.205Z,3.55
2023-02-18T14:59:27.145Z,1.75
2023-02-18T15:01:55.939Z,2.55
2023-02-18T15:04:25.509Z,3.55
2023-02-18T15:07:00.235Z,3.15
2023-02-18T15:09:27.539Z,2.53
2023-02-18T15:12:00.773Z,2.63
2023-02-18T15:16:58.076Z,3.38
2023-02-18T15:19:28.525Z,3.28
2023-02-18T15:21:57.608Z,2.95
2023-02-18T15:24:27.388Z,3.65
2023-02-18T15:26:59.647Z,2.47
2023-02-18T15:29:34.913Z,3.85
2023-02-18T15:32:15.274Z,2.35
2023-02-18T15:34:44.159Z,3.20
2023-02-18T15:37:14.119Z,2.08
2023-02-18T15:39:43.244Z,3.88
2023-02-18T15:42:19.562Z,2.15
2023-02-18T15:44:48.835Z,3.30
2023-02-18T15:47:17.731Z,2.55
2023-02-18T15:49:48.279Z,1.73
2023-02-18T15:52:16.106Z,0.90
2023-02-18T15:54:43.615Z,3.03
2023-02-18T15:57:15.851Z,2.92
2023-02-18T15:59:46.671Z,2.67
2023-02-18T16:02:19.073Z,1.83
2023-02-18T16:04:54.253Z,1.50
2023-02-18T16:07:27.716Z,1.73
2023-02-18T16:10:21.956Z,2.20
2023-02-18T16:12:54.491Z,1.05
2023-02-18T16:15:26.944Z,2.58
2023-02-18T16:17:54.541Z,1.45
2023-02-18T16:20:30.452Z,2.22
2023-02-18T16:23:01.452Z,3.47
2023-02-18T16:25:40.632Z,2.38
2023-02-18T16:28:14.393Z,1.23
2023-02-18T16:30:43.768Z,1.05
2023-02-18T16:33:11.591Z,1.25
2023-02-18T16:35:49.607Z,2.30
2023-02-18T16:38:20.381Z,1.70
2023-02-18T16:40:48.133Z,1.45
2023-02-18T16:43:19.304Z,3.95
2023-02-18T16:45:50.035Z,4.07
2023-02-18T16:48:21.431Z,2.88
2023-02-18T16:50:50.551Z,0.80
2023-02-18T16:53:17.871Z,1.30
2023-02-18T16:55:45.122Z,2.03
2023-02-18T16:58:12.413Z,4.32
2023-02-18T17:00:41.079Z,2.78
2023-02-18T17:03:13.508Z,1.13
2023-02-18T17:05:41.362Z,1.48
2023-02-18T17:08:17.307Z,2.05
2023-02-18T17:10:45.558Z,2.45
2023-02-18T17:13:15.271Z,1.65
2023-02-18T17:15:46.398Z,2.38
2023-02-18T17:18:15.021Z,1.13
2023-02-18T17:20:42.692Z,2.97
2023-02-18T17:23:13.962Z,2.95
2023-02-18T17:25:42.320Z,3.20
2023-02-18T17:28:09.613Z,2.75
2023-02-18T17:30:39.004Z,1.95
2023-02-18T17:33:11.969Z,0.98
2023-02-18T17:35:39.386Z,2.22
2023-02-18T17:38:11.044Z,2.70
2023-02-18T17:40:38.791Z,1.70
2023-02-18T17:43:06.465Z,4.10
2023-02-18T17:45:36.432Z,2.78
2023-02-18T17:48:04.466Z,4.03
2023-02-18T17:50:33.418Z,2.60
2023-02-18T17:53:00.601Z,4.22
2023-02-18T17:55:30.188Z,3.20
2023-02-18T17:57:58.136Z,2.83
2023-02-18T18:00:27.971Z,0.95
2023-02-18T18:02:55.642Z,1.42
2023-02-18T18:05:25.271Z,2.33
2023-02-18T18:07:54.709Z,3.03
2023-02-18T18:10:28.734Z,2.00
2023-02-18T18:12:56.423Z,1.67
2023-02-18T18:15:27.789Z,4.13
2023-02-18T18:17:55.988Z,3.42
2023-02-18T18:20:24.459Z,2.90
2023-02-18T18:22:54.709Z,1.15
2023-02-18T18:25:25.352Z,3.20
2023-02-18T18:27:53.942Z,2.28
2023-02-18T18:30:23.387Z,3.53
2023-02-18T18:32:50.738Z,3.83
2023-02-18T18:35:24.993Z,2.55
2023-02-18T18:37:54.321Z,2.35
2023-02-18T18:40:23.485Z,3.38
2023-02-18T18:42:51.040Z,2.75
2023-02-18T18:45:21.898Z,1.65
2023-02-18T18:47:50.145Z,1.73
2023-02-18T18:50:18.471Z,2.30
2023-02-18T18:52:47.031Z,2.10
2023-02-18T18:55:21.468Z,2.88
2023-02-18T18:57:48.944Z,2.45
2023-02-18T19:00:17.492Z,2.45
2023-02-18T19:02:45.178Z,0.68
2023-02-18T19:05:22.896Z,1.25
2023-02-18T19:07:50.268Z,2.97
2023-02-18T19:10:19.477Z,2.42
2023-02-18T19:12:47.340Z,2.50
2023-02-18T19:15:17.022Z,1.15
2023-02-18T19:17:52.092Z,2.22
2023-02-18T19:20:22.175Z,1.65
2023-02-18T19:22:50.069Z,2.17
2023-02-18T19:25:20.169Z,1.48
2023-02-18T19:27:48.599Z,2.13
2023-02-18T19:30:18.075Z,3.03
2023-02-18T19:32:46.233Z,2.30
2023-02-18T19:35:13.448Z,1.05
2023-02-18T19:37:41.037Z,3.13
2023-02-18T19:40:11.425Z,1.50
2023-02-18T19:42:40.671Z,2.85
2023-02-18T19:45:09.366Z,0.43
2023-02-18T19:47:36.655Z,1.02
2023-02-18T19:50:05.103Z,3.25
2023-02-18T19:52:32.699Z,1.58
2023-02-18T19:55:00.155Z,2.20
2023-02-18T19:57:27.548Z,1.13
2023-02-18T19:59:56.338Z,2.13
2023-02-18T20:02:25.189Z,2.97
2023-02-18T20:04:54.726Z,3.47
2023-02-18T20:07:22.953Z,3.08
2023-02-18T20:09:52.761Z,2.88
2023-02-18T20:12:20.423Z,1.35
2023-02-18T20:14:49.677Z,3.40
2023-02-18T20:17:19.280Z,2.83
2023-02-18T20:19:46.872Z,2.47
2023-02-18T20:22:14.572Z,2.75
2023-02-18T20:24:42.196Z,4.10
2023-02-18T20:27:11.194Z,2.63
2023-02-18T20:29:38.656Z,2.55
2023-02-18T20:32:09.737Z,3.00
2023-02-18T20:34:38.397Z,0.80
2023-02-18T20:37:05.962Z,2.80
2023-02-18T20:39:33.266Z,3.00
2023-02-18T20:42:07.983Z,3.65
2023-02-18T20:44:38.684Z,1.33
2023-02-18T20:47:06.127Z,2.33
2023-02-18T20:49:35.599Z,2.55
2023-02-18T20:52:04.477Z,2.92
2023-02-18T20:54:31.854Z,3.08
2023-02-18T20:56:59.343Z,1.58
2023-02-18T20:59:27.034Z,1.70
2023-02-18T21:01:54.392Z,2.88
2023-02-18T21:04:22.343Z,2.38
2023-02-18T21:06:50.664Z,2.72
2023-02-18T21:09:19.484Z,4.45
2023-02-18T21:11:46.740Z,1.65
2023-02-18T21:14:14.416Z,2.30
2023-02-18T21:16:43.339Z,1.83
2023-02-18T21:19:13.176Z,3.58
2023-02-18T21:21:41.129Z,3.65
2023-02-18T21:24:08.866Z,2.58
2023-02-18T21:26:38.303Z,4.38
2023-02-18T21:29:08.051Z,2.72
2023-02-18T21:31:37.903Z,3.03
2023-02-18T21:34:06.912Z,1.98
2023-02-18T21:36:34.783Z,3.13
2023-02-18T21:39:04.808Z,3.53
2023-02-18T21:41:34.823Z,2.95
2023-02-18T21:44:03.694Z,3.50
2023-02-18T21:46:33.444Z,4.10
2023-02-18T21:49:07.252Z,3.38
2023-02-18T21:51:56.407Z,1.38
2023-02-18T21:54:26.109Z,3.47
2023-02-18T21:56:54.326Z,2.53
2023-02-18T21:59:26.847Z,3.38
2023-02-18T22:01:55.205Z,2.70
2023-02-18T22:04:22.877Z,3.10
2023-02-18T22:06:50.242Z,3.90
2023-02-18T22:09:17.558Z,1.58
2023-02-18T22:11:44.910Z,0.95
2023-02-18T22:14:13.605Z,2.67
2023-02-18T22:16:42.372Z,4.45
2023-02-18T22:19:11.154Z,2.30
2023-02-18T22:21:38.764Z,3.58
2023-02-18T22:24:07.199Z,4.50
2023-02-18T22:26:34.963Z,3.92
2023-02-18T22:29:02.682Z,3.40
2023-02-18T22:31:31.624Z,3.17
2023-02-18T22:34:01.152Z,3.47
2023-02-18T22:36:29.308Z,2.35
2023-02-18T22:38:57.529Z,3.33
2023-02-18T22:41:26.499Z,3.35
2023-02-18T22:43:54.404Z,4.40
2023-02-18T22:46:21.923Z,3.83
2023-02-18T22:48:49.119Z,1.90
2023-02-18T22:51:20.197Z,3.00
2023-02-18T22:53:47.853Z,4.03
2023-02-18T22:56:18.635Z,3.13
2023-02-18T22:58:48.286Z,4.88
2023-02-18T23:01:23.800Z,3.75
2023-02-18T23:03:51.989Z,3.67
2023-02-18T23:06:21.906Z,2.45
2023-02-18T23:08:49.365Z,3.78
2023-02-18T23:11:18.572Z,3.35
2023-02-18T23:14:06.750Z,3.88
2023-02-18T23:16:54.563Z,2.67
2023-02-18T23:19:22.445Z,2.33
2023-02-18T23:21:51.109Z,4.13
2023-02-18T23:24:18.365Z,3.65
2023-02-18T23:26:45.995Z,4.78
2023-02-18T23:29:13.467Z,2.58
2023-02-18T23:31:41.177Z,3.30
2023-02-18T23:34:12.278Z,1.20
2023-02-18T23:36:39.719Z,4.13
2023-02-18T23:39:10.566Z,3.50
2023-02-18T23:41:38.090Z,2.22
2023-02-18T23:44:07.149Z,3.47
2023-02-18T23:46:35.286Z,3.65
2023-02-18T23:49:02.951Z,2.20
2023-02-18T23:51:30.699Z,3.78
2023-02-18T23:53:58.257Z,3.28
2023-02-18T23:56:28.383Z,1.00
2023-02-18T23:58:57.546Z,3.92
